sensor_id;sensor_type;location;lat;lon;timestamp;pressure;altitude;pressure_sealevel;temperature;humidity
16690;BME280;8458;52.220;9.884;2023-07-16T00:00:51;100072.84;;;23.43;84.33
16690;BME280;8458;52.220;9.884;2023-07-16T00:03:17;100077.50;;;23.35;84.57
16690;BME280;8458;52.220;9.884;2023-07-16T00:05:44;100080.63;;;23.30;84.99
16690;BME280;8458;52.220;9.884;2023-07-16T00:08:11;100076.69;;;23.19;85.16
16690;BME280;8458;52.220;9.884;2023-07-16T00:10:38;100081.53;;;23.18;85.61
16690;BME280;8458;52.220;9.884;2023-07-16T00:13:05;100099.34;;;23.06;85.74
16690;BME280;8458;52.220;9.884;2023-07-16T00:15:32;100114.91;;;23.13;85.40
16690;BME280;8458;52.220;9.884;2023-07-16T00:17:59;100109.72;;;23.15;85.17
16690;BME280;8458;52.220;9.884;2023-07-16T00:20:25;100099.78;;;23.21;84.38
16690;BME280;8458;52.220;9.884;2023-07-16T00:22:52;100093.75;;;23.22;82.75
16690;BME280;8458;52.220;9.884;2023-07-16T00:25:18;100090.09;;;23.22;81.78
16690;BME280;8458;52.220;9.884;2023-07-16T00:27:46;100075.69;;;23.27;80.68
16690;BME280;8458;52.220;9.884;2023-07-16T00:30:13;100060.81;;;23.30;79.67
16690;BME280;8458;52.220;9.884;2023-07-16T00:32:39;100086.28;;;23.30;79.06
16690;BME280;8458;52.220;9.884;2023-07-16T00:35:06;100079.91;;;23.33;79.33
16690;BME280;8458;52.220;9.884;2023-07-16T00:37:33;100080.78;;;23.37;79.04
16690;BME280;8458;52.220;9.884;2023-07-16T00:40:00;100075.97;;;23.38;79.32
16690;BME280;8458;52.220;9.884;2023-07-16T00:42:27;100006.13;;;23.42;78.06
16690;BME280;8458;52.220;9.884;2023-07-16T00:44:55;99996.84;;;23.41;77.51
16690;BME280;8458;52.220;9.884;2023-07-16T00:47:21;99979.81;;;23.38;77.23
16690;BME280;8458;52.220;9.884;2023-07-16T00:49:48;99990.66;;;23.36;77.36
16690;BME280;8458;52.220;9.884;2023-07-16T00:52:18;100024.69;;;23.23;78.16
16690;BME280;8458;52.220;9.884;2023-07-16T00:54:45;100064.47;;;23.15;79.04
16690;BME280;8458;52.220;9.884;2023-07-16T00:57:11;100082.31;;;23.03;79.22
16690;BME280;8458;52.220;9.884;2023-07-16T00:59:38;100083.84;;;23.00;78.94
16690;BME280;8458;52.220;9.884;2023-07-16T01:02:06;100090.97;;;22.94;78.95
16690;BME280;8458;52.220;9.884;2023-07-16T01:04:32;100108.66;;;22.91;78.89
16690;BME280;8458;52.220;9.884;2023-07-16T01:07:01;100113.19;;;22.80;79.09
16690;BME280;8458;52.220;9.884;2023-07-16T01:09:31;100095.78;;;22.78;79.34
16690;BME280;8458;52.220;9.884;2023-07-16T01:12:00;100084.94;;;22.80;78.75
16690;BME280;8458;52.220;9.884;2023-07-16T01:14:27;100096.50;;;22.74;78.94
16690;BME280;8458;52.220;9.884;2023-07-16T01:16:53;100087.69;;;22.76;79.04
16690;BME280;8458;52.220;9.884;2023-07-16T01:19:25;100074.38;;;22.77;80.17
16690;BME280;8458;52.220;9.884;2023-07-16T01:22:03;100092.59;;;22.79;79.86
16690;BME280;8458;52.220;9.884;2023-07-16T01:25:00;100100.25;;;22.79;80.88
16690;BME280;8458;52.220;9.884;2023-07-16T01:27:48;100116.59;;;22.57;81.93
16690;BME280;8458;52.220;9.884;2023-07-16T01:30:18;100126.81;;;22.62;82.81
16690;BME280;8458;52.220;9.884;2023-07-16T01:32:46;100148.97;;;22.60;83.31
16690;BME280;8458;52.220;9.884;2023-07-16T01:35:13;100165.81;;;22.56;83.82
16690;BME280;8458;52.220;9.884;2023-07-16T01:37:41;100162.91;;;22.40;86.96
16690;BME280;8458;52.220;9.884;2023-07-16T01:40:08;100168.94;;;22.26;89.24
16690;BME280;8458;52.220;9.884;2023-07-16T01:42:36;100133.69;;;22.08;91.51
16690;BME280;8458;52.220;9.884;2023-07-16T01:45:03;100137.84;;;21.73;93.68
16690;BME280;8458;52.220;9.884;2023-07-16T01:47:36;100161.47;;;21.56;94.73
16690;BME280;8458;52.220;9.884;2023-07-16T01:50:07;100157.69;;;21.40;95.57
16690;BME280;8458;52.220;9.884;2023-07-16T01:52:33;100140.06;;;21.43;96.55
16690;BME280;8458;52.220;9.884;2023-07-16T01:55:00;100148.06;;;21.53;96.44
16690;BME280;8458;52.220;9.884;2023-07-16T01:57:26;100134.47;;;21.55;95.71
16690;BME280;8458;52.220;9.884;2023-07-16T01:59:53;100101.06;;;21.57;96.19
16690;BME280;8458;52.220;9.884;2023-07-16T02:02:19;100092.38;;;21.62;97.96
16690;BME280;8458;52.220;9.884;2023-07-16T02:04:47;100093.06;;;21.72;98.03
16690;BME280;8458;52.220;9.884;2023-07-16T02:07:13;100083.19;;;21.78;97.34
16690;BME280;8458;52.220;9.884;2023-07-16T02:09:40;100092.59;;;21.82;96.05
16690;BME280;8458;52.220;9.884;2023-07-16T02:12:07;100095.06;;;21.83;95.42
16690;BME280;8458;52.220;9.884;2023-07-16T02:14:33;100122.47;;;21.83;95.57
16690;BME280;8458;52.220;9.884;2023-07-16T02:16:59;100135.84;;;21.86;96.49
16690;BME280;8458;52.220;9.884;2023-07-16T02:19:26;100135.50;;;21.88;96.82
16690;BME280;8458;52.220;9.884;2023-07-16T02:21:54;100151.59;;;21.87;97.17
16690;BME280;8458;52.220;9.884;2023-07-16T02:24:20;100149.25;;;21.89;96.52
16690;BME280;8458;52.220;9.884;2023-07-16T02:26:47;100150.88;;;21.90;95.96
16690;BME280;8458;52.220;9.884;2023-07-16T02:29:13;100139.94;;;21.89;95.86
16690;BME280;8458;52.220;9.884;2023-07-16T02:31:40;100131.47;;;21.89;95.41
16690;BME280;8458;52.220;9.884;2023-07-16T02:34:08;100139.59;;;21.90;94.66
16690;BME280;8458;52.220;9.884;2023-07-16T02:36:35;100137.03;;;21.85;95.12
16690;BME280;8458;52.220;9.884;2023-07-16T02:39:03;100148.06;;;21.90;94.54
16690;BME280;8458;52.220;9.884;2023-07-16T02:41:29;100147.59;;;21.88;95.07
16690;BME280;8458;52.220;9.884;2023-07-16T02:43:59;100153.25;;;21.88;95.46
16690;BME280;8458;52.220;9.884;2023-07-16T02:46:26;100148.91;;;21.78;96.43
16690;BME280;8458;52.220;9.884;2023-07-16T02:48:53;100150.66;;;21.83;96.39
16690;BME280;8458;52.220;9.884;2023-07-16T02:51:19;100153.00;;;21.81;96.28
16690;BME280;8458;52.220;9.884;2023-07-16T02:53:46;100166.66;;;21.79;96.08
16690;BME280;8458;52.220;9.884;2023-07-16T02:56:13;100158.66;;;21.81;96.22
16690;BME280;8458;52.220;9.884;2023-07-16T02:58:41;100144.44;;;21.77;96.41
16690;BME280;8458;52.220;9.884;2023-07-16T03:01:08;100148.41;;;21.76;96.36
16690;BME280;8458;52.220;9.884;2023-07-16T03:03:34;100155.13;;;21.72;95.86
16690;BME280;8458;52.220;9.884;2023-07-16T03:06:01;100159.84;;;21.67;95.31
16690;BME280;8458;52.220;9.884;2023-07-16T03:08:27;100169.81;;;21.65;95.26
16690;BME280;8458;52.220;9.884;2023-07-16T03:10:55;100170.88;;;21.60;94.92
16690;BME280;8458;52.220;9.884;2023-07-16T03:13:23;100172.41;;;21.58;95.14
16690;BME280;8458;52.220;9.884;2023-07-16T03:15:49;100170.41;;;21.58;94.96
16690;BME280;8458;52.220;9.884;2023-07-16T03:18:18;100180.06;;;21.57;94.55
16690;BME280;8458;52.220;9.884;2023-07-16T03:20:45;100185.94;;;21.52;93.32
16690;BME280;8458;52.220;9.884;2023-07-16T03:23:11;100189.09;;;21.51;93.55
16690;BME280;8458;52.220;9.884;2023-07-16T03:25:38;100194.56;;;21.47;93.79
16690;BME280;8458;52.220;9.884;2023-07-16T03:28:04;100194.81;;;21.42;92.21
16690;BME280;8458;52.220;9.884;2023-07-16T03:30:32;100197.16;;;21.40;89.34
16690;BME280;8458;52.220;9.884;2023-07-16T03:32:59;100206.06;;;21.29;89.29
16690;BME280;8458;52.220;9.884;2023-07-16T03:35:25;100210.75;;;21.25;90.03
16690;BME280;8458;52.220;9.884;2023-07-16T03:37:52;100212.28;;;21.23;88.94
16690;BME280;8458;52.220;9.884;2023-07-16T03:40:24;100216.84;;;21.15;88.51
16690;BME280;8458;52.220;9.884;2023-07-16T03:42:51;100211.25;;;20.94;88.34
16690;BME280;8458;52.220;9.884;2023-07-16T03:45:18;100207.16;;;20.91;88.33
16690;BME280;8458;52.220;9.884;2023-07-16T03:47:46;100217.88;;;20.77;88.00
16690;BME280;8458;52.220;9.884;2023-07-16T03:50:12;100213.00;;;20.65;88.91
16690;BME280;8458;52.220;9.884;2023-07-16T03:52:39;100210.66;;;20.67;88.58
16690;BME280;8458;52.220;9.884;2023-07-16T03:55:06;100227.09;;;20.65;88.84
16690;BME280;8458;52.220;9.884;2023-07-16T03:57:33;100214.84;;;20.61;89.30
16690;BME280;8458;52.220;9.884;2023-07-16T03:59:59;100218.56;;;20.53;88.52
16690;BME280;8458;52.220;9.884;2023-07-16T04:02:26;100230.91;;;20.60;88.88
16690;BME280;8458;52.220;9.884;2023-07-16T04:04:53;100223.22;;;20.49;89.83
16690;BME280;8458;52.220;9.884;2023-07-16T04:07:20;100237.97;;;20.46;89.68
16690;BME280;8458;52.220;9.884;2023-07-16T04:09:46;100237.22;;;20.36;90.13
16690;BME280;8458;52.220;9.884;2023-07-16T04:12:13;100232.13;;;20.30;89.99
16690;BME280;8458;52.220;9.884;2023-07-16T04:14:39;100244.88;;;20.27;91.05
16690;BME280;8458;52.220;9.884;2023-07-16T04:17:06;100237.19;;;20.15;91.65
16690;BME280;8458;52.220;9.884;2023-07-16T04:19:32;100251.44;;;20.10;91.94
16690;BME280;8458;52.220;9.884;2023-07-16T04:22:00;100259.56;;;20.12;91.88
16690;BME280;8458;52.220;9.884;2023-07-16T04:24:27;100257.38;;;20.17;92.52
16690;BME280;8458;52.220;9.884;2023-07-16T04:26:54;100266.00;;;20.12;93.16
16690;BME280;8458;52.220;9.884;2023-07-16T04:29:20;100280.81;;;20.00;94.00
16690;BME280;8458;52.220;9.884;2023-07-16T04:31:47;100276.00;;;20.01;93.68
16690;BME280;8458;52.220;9.884;2023-07-16T04:34:14;100280.47;;;20.02;93.93
16690;BME280;8458;52.220;9.884;2023-07-16T04:36:41;100289.09;;;19.97;94.25
16690;BME280;8458;52.220;9.884;2023-07-16T04:39:10;100284.34;;;19.80;94.50
16690;BME280;8458;52.220;9.884;2023-07-16T04:41:36;100291.50;;;19.77;95.83
16690;BME280;8458;52.220;9.884;2023-07-16T04:44:04;100297.75;;;19.74;96.28
16690;BME280;8458;52.220;9.884;2023-07-16T04:46:30;100301.06;;;19.76;96.85
16690;BME280;8458;52.220;9.884;2023-07-16T04:48:56;100302.56;;;19.82;97.43
16690;BME280;8458;52.220;9.884;2023-07-16T04:51:23;100303.38;;;19.83;97.27
16690;BME280;8458;52.220;9.884;2023-07-16T04:53:49;100307.50;;;19.85;97.20
16690;BME280;8458;52.220;9.884;2023-07-16T04:56:17;100308.84;;;19.79;97.27
16690;BME280;8458;52.220;9.884;2023-07-16T04:58:44;100305.88;;;19.76;96.72
16690;BME280;8458;52.220;9.884;2023-07-16T05:01:10;100317.78;;;19.81;97.00
16690;BME280;8458;52.220;9.884;2023-07-16T05:03:37;100315.47;;;19.83;95.77
16690;BME280;8458;52.220;9.884;2023-07-16T05:06:04;100320.25;;;19.83;96.44
16690;BME280;8458;52.220;9.884;2023-07-16T05:08:31;100308.03;;;19.70;96.17
16690;BME280;8458;52.220;9.884;2023-07-16T05:10:58;100328.06;;;19.77;96.47
16690;BME280;8458;52.220;9.884;2023-07-16T05:13:26;100319.28;;;19.79;96.54
16690;BME280;8458;52.220;9.884;2023-07-16T05:15:53;100332.50;;;19.78;96.17
16690;BME280;8458;52.220;9.884;2023-07-16T05:18:19;100335.66;;;19.77;96.54
16690;BME280;8458;52.220;9.884;2023-07-16T05:20:47;100341.13;;;19.82;96.88
16690;BME280;8458;52.220;9.884;2023-07-16T05:23:14;100334.66;;;19.81;96.90
16690;BME280;8458;52.220;9.884;2023-07-16T05:25:45;100338.44;;;19.85;97.57
16690;BME280;8458;52.220;9.884;2023-07-16T05:28:12;100346.56;;;19.78;96.39
16690;BME280;8458;52.220;9.884;2023-07-16T05:30:40;100343.41;;;19.80;96.60
16690;BME280;8458;52.220;9.884;2023-07-16T05:33:06;100348.72;;;19.81;96.57
16690;BME280;8458;52.220;9.884;2023-07-16T05:35:33;100351.69;;;19.85;96.16
16690;BME280;8458;52.220;9.884;2023-07-16T05:37:59;100358.16;;;19.85;94.56
16690;BME280;8458;52.220;9.884;2023-07-16T05:40:25;100362.78;;;19.81;93.85
16690;BME280;8458;52.220;9.884;2023-07-16T05:42:52;100362.63;;;19.86;94.79
16690;BME280;8458;52.220;9.884;2023-07-16T05:45:18;100361.94;;;19.90;94.03
16690;BME280;8458;52.220;9.884;2023-07-16T05:47:46;100366.56;;;19.94;93.72
16690;BME280;8458;52.220;9.884;2023-07-16T05:50:13;100364.25;;;19.87;92.00
16690;BME280;8458;52.220;9.884;2023-07-16T05:52:39;100383.41;;;20.03;91.08
16690;BME280;8458;52.220;9.884;2023-07-16T05:55:06;100378.28;;;20.05;90.21
16690;BME280;8458;52.220;9.884;2023-07-16T05:57:33;100379.75;;;20.11;91.03
16690;BME280;8458;52.220;9.884;2023-07-16T05:59:59;100386.16;;;20.20;91.35
16690;BME280;8458;52.220;9.884;2023-07-16T06:02:26;100380.81;;;20.28;91.07
16690;BME280;8458;52.220;9.884;2023-07-16T06:04:54;100381.78;;;20.40;92.63
16690;BME280;8458;52.220;9.884;2023-07-16T06:07:20;100396.97;;;20.48;92.18
16690;BME280;8458;52.220;9.884;2023-07-16T06:09:47;100391.44;;;20.60;91.48
16690;BME280;8458;52.220;9.884;2023-07-16T06:12:13;100394.56;;;20.68;91.86
16690;BME280;8458;52.220;9.884;2023-07-16T06:14:40;100402.16;;;20.76;91.45
16690;BME280;8458;52.220;9.884;2023-07-16T06:17:07;100402.28;;;20.80;90.32
16690;BME280;8458;52.220;9.884;2023-07-16T06:19:34;100395.94;;;20.91;88.80
16690;BME280;8458;52.220;9.884;2023-07-16T06:22:02;100398.91;;;20.86;86.51
16690;BME280;8458;52.220;9.884;2023-07-16T06:24:28;100394.25;;;20.90;84.24
16690;BME280;8458;52.220;9.884;2023-07-16T06:26:54;100394.06;;;20.95;84.32
16690;BME280;8458;52.220;9.884;2023-07-16T06:29:21;100391.53;;;21.03;85.51
16690;BME280;8458;52.220;9.884;2023-07-16T06:31:54;100388.72;;;21.03;84.45
16690;BME280;8458;52.220;9.884;2023-07-16T06:34:21;100402.88;;;21.15;83.17
16690;BME280;8458;52.220;9.884;2023-07-16T06:36:48;100399.50;;;21.22;83.22
16690;BME280;8458;52.220;9.884;2023-07-16T06:39:16;100398.69;;;21.21;81.51
16690;BME280;8458;52.220;9.884;2023-07-16T06:41:43;100398.75;;;21.34;81.07
16690;BME280;8458;52.220;9.884;2023-07-16T06:44:09;100399.97;;;21.45;79.37
16690;BME280;8458;52.220;9.884;2023-07-16T06:46:36;100397.16;;;21.45;78.86
16690;BME280;8458;52.220;9.884;2023-07-16T06:49:04;100404.44;;;21.46;75.93
16690;BME280;8458;52.220;9.884;2023-07-16T06:51:31;100410.72;;;21.52;75.86
16690;BME280;8458;52.220;9.884;2023-07-16T06:53:59;100416.50;;;21.55;77.40
16690;BME280;8458;52.220;9.884;2023-07-16T06:56:27;100421.44;;;21.58;73.45
16690;BME280;8458;52.220;9.884;2023-07-16T06:58:53;100415.25;;;21.65;72.15
16690;BME280;8458;52.220;9.884;2023-07-16T07:01:19;100418.00;;;21.74;72.59
16690;BME280;8458;52.220;9.884;2023-07-16T07:03:46;100414.81;;;21.75;73.09
16690;BME280;8458;52.220;9.884;2023-07-16T07:06:13;100428.34;;;21.82;72.23
16690;BME280;8458;52.220;9.884;2023-07-16T07:08:39;100419.88;;;21.82;72.73
16690;BME280;8458;52.220;9.884;2023-07-16T07:11:06;100434.72;;;21.91;71.76
16690;BME280;8458;52.220;9.884;2023-07-16T07:13:34;100438.38;;;21.92;70.33
16690;BME280;8458;52.220;9.884;2023-07-16T07:16:00;100440.50;;;21.95;69.88
16690;BME280;8458;52.220;9.884;2023-07-16T07:18:27;100420.66;;;22.03;70.03
16690;BME280;8458;52.220;9.884;2023-07-16T07:20:53;100431.72;;;22.09;71.03
16690;BME280;8458;52.220;9.884;2023-07-16T07:23:20;100433.88;;;22.24;71.56
16690;BME280;8458;52.220;9.884;2023-07-16T07:25:48;100429.47;;;22.35;70.16
16690;BME280;8458;52.220;9.884;2023-07-16T07:28:15;100443.59;;;22.35;66.22
16690;BME280;8458;52.220;9.884;2023-07-16T07:30:43;100444.28;;;22.32;64.78
16690;BME280;8458;52.220;9.884;2023-07-16T07:33:10;100444.28;;;22.32;65.46
16690;BME280;8458;52.220;9.884;2023-07-16T07:35:36;100438.84;;;22.40;64.73
16690;BME280;8458;52.220;9.884;2023-07-16T07:38:03;100443.59;;;22.35;64.41
16690;BME280;8458;52.220;9.884;2023-07-16T07:40:30;100448.28;;;22.31;64.33
16690;BME280;8458;52.220;9.884;2023-07-16T07:42:56;100443.09;;;22.33;62.84
16690;BME280;8458;52.220;9.884;2023-07-16T07:45:23;100443.72;;;22.18;63.31
16690;BME280;8458;52.220;9.884;2023-07-16T07:47:51;100450.09;;;22.15;63.30
16690;BME280;8458;52.220;9.884;2023-07-16T07:50:18;100442.34;;;22.24;62.47
16690;BME280;8458;52.220;9.884;2023-07-16T07:52:44;100448.47;;;22.26;58.86
16690;BME280;8458;52.220;9.884;2023-07-16T07:55:10;100457.75;;;22.27;58.10
16690;BME280;8458;52.220;9.884;2023-07-16T07:57:37;100463.69;;;22.34;57.23
16690;BME280;8458;52.220;9.884;2023-07-16T08:00:04;100458.63;;;22.40;55.46
16690;BME280;8458;52.220;9.884;2023-07-16T08:02:31;100451.09;;;22.31;54.76
16690;BME280;8458;52.220;9.884;2023-07-16T08:04:59;100443.28;;;22.28;54.80
16690;BME280;8458;52.220;9.884;2023-07-16T08:07:25;100449.09;;;22.44;55.18
16690;BME280;8458;52.220;9.884;2023-07-16T08:09:52;100459.47;;;22.52;54.83
16690;BME280;8458;52.220;9.884;2023-07-16T08:12:18;100462.28;;;22.52;55.37
16690;BME280;8458;52.220;9.884;2023-07-16T08:14:45;100451.47;;;22.54;55.03
16690;BME280;8458;52.220;9.884;2023-07-16T08:17:11;100455.38;;;22.62;55.07
16690;BME280;8458;52.220;9.884;2023-07-16T08:19:38;100447.34;;;22.77;54.97
16690;BME280;8458;52.220;9.884;2023-07-16T08:22:06;100461.72;;;22.84;53.39
16690;BME280;8458;52.220;9.884;2023-07-16T08:24:32;100452.53;;;22.87;53.02
16690;BME280;8458;52.220;9.884;2023-07-16T08:26:59;100460.31;;;23.02;54.89
16690;BME280;8458;52.220;9.884;2023-07-16T08:29:26;100457.22;;;23.07;55.42
16690;BME280;8458;52.220;9.884;2023-07-16T08:31:52;100464.91;;;23.19;54.77
16690;BME280;8458;52.220;9.884;2023-07-16T08:34:19;100463.16;;;23.15;52.19
16690;BME280;8458;52.220;9.884;2023-07-16T08:36:45;100465.47;;;23.25;52.09
16690;BME280;8458;52.220;9.884;2023-07-16T08:39:13;100469.47;;;23.36;52.98
16690;BME280;8458;52.220;9.884;2023-07-16T08:41:40;100462.97;;;23.36;50.43
16690;BME280;8458;52.220;9.884;2023-07-16T08:44:06;100463.91;;;23.40;52.50
16690;BME280;8458;52.220;9.884;2023-07-16T08:46:33;100454.69;;;23.55;52.43
16690;BME280;8458;52.220;9.884;2023-07-16T08:48:59;100461.47;;;23.67;52.55
16690;BME280;8458;52.220;9.884;2023-07-16T08:51:27;100447.16;;;23.75;52.03
16690;BME280;8458;52.220;9.884;2023-07-16T08:53:55;100459.47;;;23.67;50.00
16690;BME280;8458;52.220;9.884;2023-07-16T08:56:23;100456.38;;;23.72;51.65
16690;BME280;8458;52.220;9.884;2023-07-16T08:58:50;100445.50;;;23.74;50.48
16690;BME280;8458;52.220;9.884;2023-07-16T09:01:20;100447.63;;;23.77;49.78
16690;BME280;8458;52.220;9.884;2023-07-16T09:03:47;100456.53;;;23.92;49.68
16690;BME280;8458;52.220;9.884;2023-07-16T09:06:13;100456.53;;;23.92;49.28
16690;BME280;8458;52.220;9.884;2023-07-16T09:08:40;100452.63;;;23.96;49.78
16690;BME280;8458;52.220;9.884;2023-07-16T09:11:11;100467.56;;;24.09;48.28
16690;BME280;8458;52.220;9.884;2023-07-16T09:13:43;100463.06;;;24.08;47.96
16690;BME280;8458;52.220;9.884;2023-07-16T09:16:10;100465.84;;;24.21;48.66
16690;BME280;8458;52.220;9.884;2023-07-16T09:18:36;100470.50;;;24.29;48.65
16690;BME280;8458;52.220;9.884;2023-07-16T09:21:03;100464.31;;;24.39;47.78
16690;BME280;8458;52.220;9.884;2023-07-16T09:23:33;100476.09;;;24.41;46.30
16690;BME280;8458;52.220;9.884;2023-07-16T09:26:00;100475.56;;;24.36;45.76
16690;BME280;8458;52.220;9.884;2023-07-16T09:28:30;100472.72;;;24.51;46.40
16690;BME280;8458;52.220;9.884;2023-07-16T09:31:03;100480.25;;;24.60;45.65
16690;BME280;8458;52.220;9.884;2023-07-16T09:33:31;100467.19;;;24.71;45.86
16690;BME280;8458;52.220;9.884;2023-07-16T09:35:58;100468.56;;;24.77;45.52
16690;BME280;8458;52.220;9.884;2023-07-16T09:38:26;100481.16;;;24.96;45.52
16690;BME280;8458;52.220;9.884;2023-07-16T09:40:55;100479.75;;;25.05;44.91
16690;BME280;8458;52.220;9.884;2023-07-16T09:43:22;100492.47;;;25.12;44.72
16690;BME280;8458;52.220;9.884;2023-07-16T09:45:48;100486.16;;;25.02;44.24
16690;BME280;8458;52.220;9.884;2023-07-16T09:48:16;100489.03;;;24.86;44.03
16690;BME280;8458;52.220;9.884;2023-07-16T09:50:49;100484.84;;;24.80;44.08
16690;BME280;8458;52.220;9.884;2023-07-16T09:53:18;100494.88;;;24.94;45.84
16690;BME280;8458;52.220;9.884;2023-07-16T09:55:46;100491.03;;;25.02;45.84
16690;BME280;8458;52.220;9.884;2023-07-16T09:58:13;100493.00;;;25.17;45.85
16690;BME280;8458;52.220;9.884;2023-07-16T10:00:40;100496.69;;;25.02;44.31
16690;BME280;8458;52.220;9.884;2023-07-16T10:03:08;100506.00;;;25.18;45.49
16690;BME280;8458;52.220;9.884;2023-07-16T10:05:37;100506.59;;;25.28;45.03
16690;BME280;8458;52.220;9.884;2023-07-16T10:08:04;100505.16;;;25.34;44.64
16690;BME280;8458;52.220;9.884;2023-07-16T10:10:38;100505.03;;;25.46;45.46
16690;BME280;8458;52.220;9.884;2023-07-16T10:13:07;100502.25;;;25.30;44.37
16690;BME280;8458;52.220;9.884;2023-07-16T10:15:33;100510.03;;;25.33;44.68
16690;BME280;8458;52.220;9.884;2023-07-16T10:18:00;100501.75;;;25.44;44.23
16690;BME280;8458;52.220;9.884;2023-07-16T10:20:30;100498.44;;;25.42;43.30
16690;BME280;8458;52.220;9.884;2023-07-16T10:23:09;100492.38;;;25.59;43.27
16690;BME280;8458;52.220;9.884;2023-07-16T10:25:36;100500.13;;;25.63;43.62
16690;BME280;8458;52.220;9.884;2023-07-16T10:28:03;100510.13;;;25.76;42.81
16690;BME280;8458;52.220;9.884;2023-07-16T10:30:30;100510.13;;;25.76;43.24
16690;BME280;8458;52.220;9.884;2023-07-16T10:32:56;100503.34;;;25.81;43.48
16690;BME280;8458;52.220;9.884;2023-07-16T10:35:23;100497.75;;;25.84;42.48
16690;BME280;8458;52.220;9.884;2023-07-16T10:37:50;100503.34;;;25.81;43.07
16690;BME280;8458;52.220;9.884;2023-07-16T10:40:17;100509.69;;;25.74;41.86
16690;BME280;8458;52.220;9.884;2023-07-16T10:42:45;100500.97;;;25.83;42.64
16690;BME280;8458;52.220;9.884;2023-07-16T10:45:12;100511.16;;;26.03;42.80
16690;BME280;8458;52.220;9.884;2023-07-16T10:47:50;100494.25;;;26.10;43.07
16690;BME280;8458;52.220;9.884;2023-07-16T10:50:16;100513.13;;;26.22;42.84
16690;BME280;8458;52.220;9.884;2023-07-16T10:52:42;100513.03;;;26.15;42.80
16690;BME280;8458;52.220;9.884;2023-07-16T10:55:09;100519.34;;;26.08;42.51
16690;BME280;8458;52.220;9.884;2023-07-16T10:57:37;100523.03;;;26.09;41.56
16690;BME280;8458;52.220;9.884;2023-07-16T11:00:04;100511.31;;;26.10;41.51
16690;BME280;8458;52.220;9.884;2023-07-16T11:02:30;100532.16;;;25.99;40.35
16690;BME280;8458;52.220;9.884;2023-07-16T11:04:57;100527.28;;;25.99;40.79
16690;BME280;8458;52.220;9.884;2023-07-16T11:07:26;100528.84;;;26.16;41.82
16690;BME280;8458;52.220;9.884;2023-07-16T11:09:54;100532.59;;;26.20;39.79
16690;BME280;8458;52.220;9.884;2023-07-16T11:12:21;100530.34;;;26.29;40.13
16690;BME280;8458;52.220;9.884;2023-07-16T11:14:51;100523.09;;;26.32;39.34
16690;BME280;8458;52.220;9.884;2023-07-16T11:17:18;100533.44;;;26.44;39.62
16690;BME280;8458;52.220;9.884;2023-07-16T11:19:46;100514.31;;;26.64;39.79
16690;BME280;8458;52.220;9.884;2023-07-16T11:22:14;100518.91;;;26.69;39.78
16690;BME280;8458;52.220;9.884;2023-07-16T11:24:42;100517.56;;;26.86;40.05
16690;BME280;8458;52.220;9.884;2023-07-16T11:27:13;100523.47;;;27.00;39.07
16690;BME280;8458;52.220;9.884;2023-07-16T11:29:40;100525.13;;;27.28;39.92
16690;BME280;8458;52.220;9.884;2023-07-16T11:32:08;100518.97;;;27.22;38.05
16690;BME280;8458;52.220;9.884;2023-07-16T11:34:35;100527.13;;;27.24;38.13
16690;BME280;8458;52.220;9.884;2023-07-16T11:37:09;100520.72;;;27.30;38.69
16690;BME280;8458;52.220;9.884;2023-07-16T11:39:36;100517.03;;;27.53;38.21
16690;BME280;8458;52.220;9.884;2023-07-16T11:42:03;100517.22;;;27.67;38.61
16690;BME280;8458;52.220;9.884;2023-07-16T11:44:33;100521.25;;;27.66;37.81
16690;BME280;8458;52.220;9.884;2023-07-16T11:47:01;100515.97;;;27.68;37.95
16690;BME280;8458;52.220;9.884;2023-07-16T11:49:29;100514.50;;;27.78;38.25
16690;BME280;8458;52.220;9.884;2023-07-16T11:51:56;100510.56;;;27.90;37.84
16690;BME280;8458;52.220;9.884;2023-07-16T11:54:23;100511.56;;;28.01;39.15
16690;BME280;8458;52.220;9.884;2023-07-16T11:56:50;100511.81;;;27.93;37.35
16690;BME280;8458;52.220;9.884;2023-07-16T11:59:19;100516.38;;;27.67;37.30
16690;BME280;8458;52.220;9.884;2023-07-16T12:01:47;100512.38;;;27.71;36.50
16690;BME280;8458;52.220;9.884;2023-07-16T12:04:14;100513.47;;;27.94;36.62
16690;BME280;8458;52.220;9.884;2023-07-16T12:06:42;100517.44;;;27.85;36.44
16690;BME280;8458;52.220;9.884;2023-07-16T12:09:09;100522.41;;;27.92;36.99
16690;BME280;8458;52.220;9.884;2023-07-16T12:11:35;100510.91;;;27.85;37.67
16690;BME280;8458;52.220;9.884;2023-07-16T12:14:03;100532.06;;;27.84;37.47
16690;BME280;8458;52.220;9.884;2023-07-16T12:16:29;100513.53;;;27.97;37.33
16690;BME280;8458;52.220;9.884;2023-07-16T12:18:56;100522.91;;;27.98;36.61
16690;BME280;8458;52.220;9.884;2023-07-16T12:21:22;100524.81;;;27.90;36.87
16690;BME280;8458;52.220;9.884;2023-07-16T12:23:50;100539.94;;;27.94;37.41
16690;BME280;8458;52.220;9.884;2023-07-16T12:26:17;100524.03;;;27.93;36.24
16690;BME280;8458;52.220;9.884;2023-07-16T12:28:43;100518.88;;;28.02;36.37
16690;BME280;8458;52.220;9.884;2023-07-16T12:31:10;100525.06;;;28.08;37.56
16690;BME280;8458;52.220;9.884;2023-07-16T12:33:36;100523.28;;;27.96;36.76
16690;BME280;8458;52.220;9.884;2023-07-16T12:36:03;100540.22;;;27.85;35.97
16690;BME280;8458;52.220;9.884;2023-07-16T12:38:30;100526.94;;;27.66;36.41
16690;BME280;8458;52.220;9.884;2023-07-16T12:40:58;100526.94;;;27.66;37.17
16690;BME280;8458;52.220;9.884;2023-07-16T12:43:24;100532.22;;;27.64;37.06
16690;BME280;8458;52.220;9.884;2023-07-16T12:45:51;100529.25;;;27.57;37.37
16690;BME280;8458;52.220;9.884;2023-07-16T12:48:17;100520.06;;;27.67;37.94
16690;BME280;8458;52.220;9.884;2023-07-16T12:50:44;100529.69;;;27.89;38.03
16690;BME280;8458;52.220;9.884;2023-07-16T12:53:10;100539.03;;;28.17;39.17
16690;BME280;8458;52.220;9.884;2023-07-16T12:55:37;100542.41;;;28.30;36.73
16690;BME280;8458;52.220;9.884;2023-07-16T12:58:04;100541.59;;;28.29;36.42
16690;BME280;8458;52.220;9.884;2023-07-16T13:00:31;100537.50;;;28.26;37.32